Data for 02/17/2006

Time Sea-Level Adjusted Pressure Absolute Pressure Temperature Relative Humidity Dew Point   
(mb) (inHg) (mb) (inHg) (C) (F) (%) (C) (F)
00:05 1027 30.33 856 25.28 -23.8 -10.9 62 -29.1 -20.5
00:10 1027 30.33 856 25.28 -23.9 -10.9 63 -29.1 -20.4
00:15 1027 30.33 856 25.28 -23.9 -11 63 -29.1 -20.3
00:20 1027 30.33 856 25.28 -23.9 -11 63 -29 -20.3
00:25 1027 30.33 856 25.28 -23.8 -10.9 63 -29 -20.1
00:30 1027 30.33 856 25.28 -23.9 -10.9 64 -28.8 -19.9
00:35 1027 30.33 856 25.28 -23.7 -10.7 63 -28.9 -20
00:40 1027 30.33 856 25.28 -23.8 -10.9 64 -28.9 -19.9
00:45 1027 30.33 856 25.28 -23.9 -11 63 -29.1 -20.4
00:50 1027 30.33 856 25.28 -23.9 -10.9 63 -29 -20.3
00:55 1027 30.33 856 25.28 -24 -11.2 62 -29.4 -20.9
01:00 1027 30.33 856 25.28 -24.1 -11.3 62 -29.5 -21.1
01:05 1027 30.33 856 25.28 -24.1 -11.3 63 -29.3 -20.7
01:10 1027 30.33 856 25.28 -24 -11.3 62 -29.4 -20.9
01:15 1027 30.33 856 25.28 -24.1 -11.3 62 -29.5 -21.1
01:20 1027 30.33 856 25.28 -24.2 -11.5 63 -29.4 -20.9
01:25 1027 30.33 856 25.28 -24.3 -11.7 62 -29.7 -21.4
01:30 1027 30.33 856 25.28 -24.4 -11.9 62 -29.7 -21.4
01:35 1027 30.33 856 25.28 -24.4 -11.8 62 -29.7 -21.5
01:40 1027 30.33 857 25.31 -24.4 -11.9 62 -29.7 -21.5
01:45 1027 30.33 856 25.28 -24.4 -12 62 -29.8 -21.7
01:50 1027 30.33 857 25.31 -24.5 -12.1 62 -29.9 -21.8
01:55 1027 30.33 857 25.31 -24.5 -12.2 63 -29.7 -21.5
02:00 1027 30.33 857 25.31 -24.6 -12.3 63 -29.8 -21.7
02:05 1027 30.33 857 25.31 -24.6 -12.2 63 -29.7 -21.5
02:10 1027 30.33 857 25.31 -24.6 -12.3 63 -29.8 -21.6
02:15 1027 30.33 857 25.31 -24.6 -12.2 62 -29.9 -21.8
02:20 1027 30.33 857 25.31 -24.6 -12.2 62 -29.9 -21.8
02:25 1027 30.33 857 25.31 -24.6 -12.3 62 -30 -22
02:30 1027 30.33 857 25.31 -24.7 -12.4 62 -30 -22
02:35 1027 30.33 857 25.31 -24.7 -12.5 63 -29.8 -21.6
02:40 1027 30.33 857 25.31 -24.8 -12.6 63 -30 -22
02:45 1027 30.33 857 25.31 -24.8 -12.7 62 -30.1 -22.2
02:50 1027 30.33 857 25.31 -24.9 -12.8 63 -30 -22.1
02:55 1027 30.33 857 25.31 -24.9 -12.8 63 -30.1 -22.2
03:00 1027 30.33 856 25.28 -25 -12.9 64 -30 -22
03:05 1027 30.33 856 25.28 -25 -13.1 64 -30 -22
03:10 1027 30.33 856 25.28 -25.1 -13.1 65 -29.9 -21.8
03:15 1027 30.33 856 25.28 -25.1 -13.2 64 -30 -22.1
03:20 1027 30.33 856 25.28 -25.1 -13.2 65 -29.9 -21.9
03:25 1027 30.33 856 25.28 -25.1 -13.2 64 -30.1 -22.1
03:30 1027 30.33 856 25.28 -25.2 -13.3 65 -29.9 -21.9
03:35 1027 30.33 856 25.28 -25.2 -13.4 64 -30.1 -22.3
03:40 1027 30.33 856 25.28 -25.3 -13.5 64 -30.2 -22.3
03:45 1027 30.33 856 25.28 -25.3 -13.5 64 -30.2 -22.3
03:50 1027 30.33 856 25.28 -25.4 -13.7 63 -30.5 -22.9
03:55 1027 30.33 856 25.28 -25.5 -13.9 63 -30.6 -23.2
04:00 1027 30.33 856 25.28 -25.5 -14 62 -30.8 -23.4
04:05 1027 30.33 856 25.28 -25.6 -14.1 61 -31.1 -24
04:10 1027 30.33 856 25.28 -25.7 -14.2 61 -31.2 -24.2
04:15 1027 30.33 856 25.28 -25.8 -14.4 61 -31.2 -24.2
04:20 1027 30.33 856 25.28 -26 -14.7 61 -31.5 -24.7
04:25 1027 30.33 856 25.28 -25.9 -14.7 59 -31.7 -25.1
04:30 1027 30.33 856 25.28 -26.1 -15 59 -32 -25.6
04:35 1027 30.33 856 25.28 -26.2 -15.1 59 -31.9 -25.5
04:40 1027 30.33 856 25.28 -26.3 -15.3 60 -31.8 -25.2
04:45 1027 30.33 856 25.28 -26.4 -15.5 61 -31.9 -25.4
04:50 1027 30.33 856 25.28 -26.4 -15.4 61 -31.7 -25.1
04:55 1027 30.33 856 25.28 -26.5 -15.6 61 -31.8 -25.3
05:00 1027 30.33 856 25.28 -26.5 -15.7 61 -31.8 -25.3
05:05 1027 30.33 856 25.28 -26.5 -15.7 62 -31.8 -25.2
05:10 1027 30.33 856 25.28 -26.5 -15.7 63 -31.7 -25
05:15 1027 30.33 856 25.28 -26.6 -15.8 62 -31.8 -25.3
05:20 1027 30.33 856 25.28 -26.7 -16 63 -31.8 -25.2
05:25 1027 30.33 856 25.28 -26.7 -16 63 -31.8 -25.2
05:30 1027 30.33 856 25.28 -26.8 -16.2 62 -32 -25.5
05:35 1027 30.33 856 25.28 -26.8 -16.3 62 -32 -25.6
05:40 1027 30.33 856 25.28 -26.9 -16.4 62 -32.1 -25.7
05:45 1027 30.33 856 25.28 -26.9 -16.4 62 -32.1 -25.8
05:50 1027 30.33 856 25.28 -27 -16.7 62 -32.3 -26.2
05:55 1027 30.33 856 25.28 -27.1 -16.8 62 -32.4 -26.4
06:00 1027 30.33 856 25.28 -27.2 -17 62 -32.4 -26.4
06:05 1027 30.33 856 25.28 -27.3 -17.2 62 -32.5 -26.5
06:10 1027 30.33 856 25.28 -27.4 -17.2 62 -32.5 -26.5
06:15 1027 30.33 856 25.28 -27.5 -17.4 63 -32.5 -26.6
06:20 1027 30.33 856 25.28 -27.6 -17.6 64 -32.5 -26.5
06:25 1027 30.33 856 25.28 -27.6 -17.6 64 -32.5 -26.5
06:30 1027 30.33 856 25.28 -27.6 -17.6 63 -32.6 -26.6
06:35 1027 30.33 856 25.28 -27.7 -17.8 63 -32.7 -26.8
06:40 1027 30.33 856 25.28 -27.7 -17.8 63 -32.6 -26.7
06:45 1027 30.33 856 25.28 -27.7 -17.8 63 -32.7 -26.8
06:50 1027 30.33 857 25.31 -27.7 -17.8 63 -32.7 -26.9
06:55 1027 30.33 857 25.31 -27.8 -18 64 -32.6 -26.7
07:00 1027 30.33 857 25.31 -27.9 -18.2 64 -32.8 -27.1
07:05 1028 30.36 857 25.31 -28 -18.3 64 -32.8 -27
07:10 1028 30.36 857 25.31 -28 -18.3 64 -32.9 -27.2
07:15 1028 30.36 857 25.31 -28 -18.3 63 -33 -27.4
07:20 1028 30.36 857 25.31 -28.1 -18.5 64 -33 -27.3
07:25 1028 30.36 857 25.31 -28.1 -18.6 64 -33 -27.3
07:30 1028 30.36 857 25.31 -28.2 -18.7 64 -33 -27.5
07:35 1028 30.36 857 25.31 -28.2 -18.7 63 -33.2 -27.8
07:40 1028 30.36 857 25.31 -28.2 -18.8 63 -33.3 -27.9
07:45 1028 30.36 857 25.31 -28.2 -18.8 62 -33.4 -28.1
07:50 1028 30.36 857 25.31 -28 -18.5 62 -33.3 -27.9
07:55 1028 30.36 857 25.31 -28 -18.3 62 -33.2 -27.7
08:00 1028 30.36 857 25.31 -28 -18.5 61 -33.3 -28
08:05 1028 30.36 857 25.31 -28.2 -18.7 61 -33.5 -28.3
08:10 1028 30.36 857 25.31 -28.2 -18.7 62 -33.4 -28.2
08:15 1028 30.36 857 25.31 -28.2 -18.7 61 -33.5 -28.2
08:20 1028 30.36 857 25.31 -28.2 -18.8 62 -33.4 -28
08:25 1028 30.36 857 25.31 -28.1 -18.6 62 -33.4 -28
08:30 1028 30.36 857 25.31 -28.1 -18.5 60 -33.6 -28.4
08:35 1028 30.36 858 25.34 -27.9 -18.2 60 -33.3 -28
08:40 1028 30.36 857 25.31 -27.6 -17.7 59 -33.3 -27.9
08:45 1028 30.36 858 25.34 -27.4 -17.3 59 -33.1 -27.6
08:50 1028 30.36 858 25.34 -27.4 -17.3 59 -33.2 -27.7
08:55 1028 30.36 858 25.34 -27.2 -16.9 57 -33.2 -27.8
09:00 1028 30.36 858 25.34 -26.8 -16.3 58 -32.8 -27
09:05 1028 30.36 858 25.34 -26.7 -16 56 -33.1 -27.5
09:10 1028 30.36 858 25.34 -26.8 -16.2 56 -33.2 -27.7
09:15 1028 30.36 858 25.34 -26.6 -15.9 55 -33.1 -27.7
09:20 1028 30.36 858 25.34 -26.4 -15.5 54 -33.1 -27.5
09:25 1028 30.36 858 25.34 -26.2 -15.1 54 -33 -27.4
09:30 1028 30.36 858 25.34 -26 -14.8 52 -33.1 -27.6
09:35 1028 30.36 858 25.34 -25.9 -14.5 51 -33.2 -27.7
09:40 1028 30.36 858 25.34 -25.9 -14.7 51 -33.3 -27.9
09:45 1028 30.36 858 25.34 -25.9 -14.7 52 -33.2 -27.7
09:50 1028 30.36 858 25.34 -25.6 -14.1 52 -32.8 -27
09:55 1028 30.36 858 25.34 -25.1 -13.2 51 -32.5 -26.6
10:00 1028 30.36 858 25.34 -25.2 -13.4 52 -32.4 -26.3
10:05 1028 30.36 858 25.34 -25 -13 51 -32.4 -26.3
10:10 1028 30.36 857 25.31 -24.7 -12.4 50 -32.3 -26.2
10:15 1028 30.36 857 25.31 -24.8 -12.7 50 -32.5 -26.5
10:20 1028 30.36 857 25.31 -24.7 -12.5 50 -32.4 -26.2
10:25 1028 30.36 857 25.31 -24.7 -12.4 49 -32.5 -26.5
10:30 1028 30.36 857 25.31 -24.3 -11.8 49 -32.2 -26
10:35 1028 30.36 857 25.31 -23.6 -10.4 46 -32.1 -25.8
10:40 1028 30.36 857 25.31 -24.1 -11.4 51 -31.7 -25
10:45 1028 30.36 857 25.31 -24 -11.3 51 -31.6 -24.8
10:50 1028 30.36 857 25.31 -23.6 -10.5 50 -31.2 -24.2
10:55 1028 30.36 857 25.31 -24.5 -12.1 57 -30.8 -23.4
11:00 1028 30.36 857 25.31 -24.1 -11.5 56 -30.6 -23
11:05 1028 30.36 857 25.31 -23.2 -9.8 54 -30.1 -22.2
11:10 1028 30.36 857 25.31 -22.2 -7.9 51 -29.8 -21.7
11:15 1028 30.36 857 25.31 -22.3 -8.2 51 -29.9 -21.9
11:20 1028 30.36 857 25.31 -22.4 -8.3 49 -30.3 -22.6
11:25 1028 30.36 857 25.31 -21.7 -7 48 -29.8 -21.7
11:30 1028 30.36 857 25.31 -22 -7.6 53 -29.1 -20.4
11:35 1028 30.36 857 25.31 -22.8 -9.1 56 -29.3 -20.7
11:40 1028 30.36 857 25.31 -23.7 -10.7 57 -29.9 -21.8
11:45 1028 30.36 857 25.31 -22.3 -8.2 53 -29.5 -21.2
11:50 1028 30.36 858 25.34 -22.6 -8.7 56 -29.2 -20.5
11:55 1028 30.36 857 25.31 -22.1 -7.8 53 -29.2 -20.5
12:00 1028 30.36 857 25.31 -21.8 -7.3 53 -29 -20.2
12:05 1028 30.36 857 25.31 -21 -5.8 47 -29.6 -21.3
12:10 1028 30.36 857 25.31 -21.6 -6.8 48 -29.8 -21.6
12:15 1028 30.36 857 25.31 -23 -9.3 53 -30 -22.1
12:20 1028 30.36 857 25.31 -23 -9.5 54 -29.9 -21.8
12:25 1028 30.36 857 25.31 -22.2 -7.9 51 -29.8 -21.7
12:30 1028 30.36 857 25.31 -21.9 -7.5 50 -29.7 -21.4
12:35 1028 30.36 857 25.31 -21 -5.7 49 -29.2 -20.5
12:40 1028 30.36 857 25.31 -20.4 -4.7 48 -28.8 -19.8
12:45 1028 30.36 857 25.31 -19.9 -3.8 47 -28.5 -19.3
12:50 1028 30.36 857 25.31 -20.8 -5.4 49 -29 -20.1
12:55 1028 30.36 857 25.31 -21.6 -6.9 51 -29.2 -20.6
13:00 1028 30.36 857 25.31 -21.6 -6.9 52 -29.1 -20.3
13:05 1028 30.36 857 25.31 -21 -5.8 49 -29.1 -20.5
13:10 1028 30.36 857 25.31 -21 -5.7 51 -28.6 -19.5
13:15 1028 30.36 857 25.31 -20.6 -5.2 49 -28.9 -19.9
13:20 1027 30.33 857 25.31 -20.6 -5 47 -29.3 -20.7
13:25 1027 30.33 857 25.31 -21.6 -6.8 50 -29.4 -20.9
13:30 1027 30.33 857 25.31 -20.3 -4.6 46 -29.2 -20.5
13:35 1027 30.33 857 25.31 -20.1 -4.2 47 -28.8 -19.9
13:40 1027 30.33 856 25.28 -20.4 -4.6 49 -28.4 -19.2
13:45 1027 30.33 856 25.28 -20.4 -4.8 48 -28.8 -19.8
13:50 1027 30.33 856 25.28 -21.3 -6.3 51 -29 -20.2
13:55 1027 30.33 856 25.28 -20.7 -5.3 48 -29 -20.2
14:00 1027 30.33 856 25.28 -19.7 -3.4 47 -28.3 -18.9
14:05 1027 30.33 856 25.28 -20.1 -4.1 48 -28.5 -19.3
14:10 1027 30.33 856 25.28 -20.2 -4.4 45 -29.3 -20.7
14:15 1027 30.33 856 25.28 -19.9 -3.8 47 -28.6 -19.4
14:20 1027 30.33 856 25.28 -19.4 -2.9 44 -28.8 -19.9
14:25 1027 30.33 856 25.28 -19.3 -2.8 45 -28.6 -19.5
14:30 1027 30.33 856 25.28 -20.4 -4.7 48 -28.7 -19.7
14:35 1027 30.33 856 25.28 -21.1 -6 49 -29.1 -20.4
14:40 1027 30.33 856 25.28 -20.4 -4.7 49 -28.5 -19.3
14:45 1027 30.33 856 25.28 -20 -4 47 -28.6 -19.5
14:50 1027 30.33 856 25.28 -20 -4.1 47 -28.7 -19.7
14:55 1027 30.33 856 25.28 -20.7 -5.2 48 -29 -20.1
15:00 1027 30.33 856 25.28 -20.8 -5.5 50 -28.7 -19.7
15:05 1027 30.33 856 25.28 -20.2 -4.3 48 -28.5 -19.3
15:10 1027 30.33 856 25.28 -19.8 -3.6 46 -28.6 -19.5
15:15 1027 30.33 856 25.28 -19.4 -2.9 44 -28.7 -19.7
15:20 1027 30.33 856 25.28 -21.2 -6.2 50 -29.1 -20.5
15:25 1027 30.33 856 25.28 -21.2 -6.2 51 -28.9 -20.1
15:30 1026 30.3 856 25.28 -20.9 -5.6 49 -28.9 -20
15:35 1026 30.3 856 25.28 -20.4 -4.7 49 -28.6 -19.5
15:40 1026 30.3 856 25.28 -20 -4 46 -28.9 -20.1
15:45 1026 30.3 856 25.28 -20.6 -5.1 49 -28.7 -19.7
15:50 1026 30.3 856 25.28 -20.2 -4.4 48 -28.7 -19.7
15:55 1026 30.3 855 25.25 -20.9 -5.6 49 -29 -20.2
16:00 1026 30.3 855 25.25 -20.7 -5.3 48 -29 -20.2
16:05 1026 30.3 855 25.25 -21.2 -6.1 50 -29 -20.1
16:10 1026 30.3 855 25.25 -21.1 -5.9 49 -29.1 -20.5
16:15 1026 30.3 855 25.25 -21.5 -6.8 50 -29.3 -20.7
16:20 1026 30.3 855 25.25 -21.2 -6.1 50 -28.9 -20.1
16:25 1026 30.3 855 25.25 -20.9 -5.7 49 -29.1 -20.5
16:30 1026 30.3 855 25.25 -21.4 -6.5 52 -28.8 -19.8
16:35 1026 30.3 855 25.25 -21 -5.8 50 -29 -20.2
16:40 1026 30.3 855 25.25 -20.5 -4.9 47 -29 -20.2
16:45 1026 30.3 855 25.25 -20.2 -4.3 46 -29 -20.3
16:50 1026 30.3 855 25.25 -20.3 -4.5 46 -29.1 -20.4
16:55 1026 30.3 855 25.25 -21.2 -6.2 49 -29.4 -21
17:00 1026 30.3 855 25.25 -21.2 -6.2 48 -29.6 -21.3
17:05 1026 30.3 855 25.25 -21.4 -6.5 48 -29.8 -21.6
17:10 1026 30.3 855 25.25 -21.2 -6.1 49 -29.3 -20.8
17:15 1026 30.3 855 25.25 -21.2 -6.1 51 -28.8 -19.8
17:20 1026 30.3 855 25.25 -21.2 -6.1 51 -28.8 -19.9
17:25 1026 30.3 855 25.25 -21.5 -6.6 50 -29.2 -20.6
17:30 1026 30.3 855 25.25 -21.9 -7.3 50 -29.7 -21.4
17:35 1026 30.3 855 25.25 -22.4 -8.2 52 -29.7 -21.5
17:40 1026 30.3 855 25.25 -22.6 -8.6 51 -30 -22
17:45 1026 30.3 855 25.25 -22.8 -9.1 53 -30 -22
17:50 1026 30.3 855 25.25 -22.9 -9.2 54 -29.8 -21.7
17:55 1026 30.3 855 25.25 -23.2 -9.7 54 -30 -21.9
18:00 1026 30.3 855 25.25 -23.2 -9.8 56 -29.8 -21.6
18:05 1026 30.3 855 25.25 -23.1 -9.5 56 -29.6 -21.3
18:10 1026 30.3 855 25.25 -22.8 -9.1 58 -29 -20.2
18:15 1026 30.3 855 25.25 -22.8 -9 55 -29.4 -21
18:20 1026 30.3 855 25.25 -22.9 -9.2 57 -29.2 -20.5
18:25 1026 30.3 855 25.25 -23.1 -9.5 58 -29.3 -20.7
18:30 1026 30.3 855 25.25 -23.5 -10.4 60 -29.2 -20.6
18:35 1026 30.3 855 25.25 -23.5 -10.4 59 -29.4 -20.9
18:40 1026 30.3 855 25.25 -23.5 -10.4 58 -29.6 -21.3
18:45 1026 30.3 855 25.25 -23.6 -10.4 59 -29.5 -21
18:50 1026 30.3 855 25.25 -23.4 -10.2 58 -29.6 -21.3
18:55 1026 30.3 855 25.25 -23.8 -10.8 60 -29.5 -21.1
19:00 1026 30.3 855 25.25 -24 -11.2 61 -29.5 -21.1
19:05 1026 30.3 855 25.25 -23.9 -11.1 62 -29.3 -20.7
19:10 1026 30.3 855 25.25 -24 -11.2 64 -29 -20.2
19:15 1026 30.3 855 25.25 -24 -11.2 63 -29.3 -20.7
19:20 1026 30.3 855 25.25 -24.5 -12.1 63 -29.7 -21.4
19:25 1026 30.3 855 25.25 -24.5 -12.2 64 -29.5 -21
19:30 1026 30.3 855 25.25 -24.4 -12 63 -29.6 -21.3
19:35 1026 30.3 855 25.25 -24.4 -11.9 62 -29.8 -21.6
19:40 1026 30.3 855 25.25 -24.5 -12.2 62 -29.9 -21.8
19:45 1026 30.3 855 25.25 -24.5 -12.1 63 -29.6 -21.3
19:50 1026 30.3 855 25.25 -24.5 -12.2 63 -29.7 -21.4
19:55 1026 30.3 855 25.25 -24.9 -12.8 65 -29.7 -21.5
20:00 1026 30.3 855 25.25 -24.9 -12.8 64 -29.8 -21.7
20:05 1026 30.3 855 25.25 -25.1 -13.1 64 -30 -22.1
20:10 1026 30.3 855 25.25 -25.2 -13.3 64 -30.2 -22.4
20:15 1026 30.3 855 25.25 -25.4 -13.8 64 -30.3 -22.6
20:20 1026 30.3 855 25.25 -25.6 -14 65 -30.4 -22.7
20:25 1026 30.3 855 25.25 -25.6 -14.1 66 -30.3 -22.5
20:30 1026 30.3 855 25.25 -25.5 -13.9 66 -30.2 -22.3
20:35 1026 30.3 855 25.25 -25.6 -14.1 66 -30.3 -22.5
20:40 1026 30.3 855 25.25 -25.6 -14.1 66 -30.3 -22.5
20:45 1026 30.3 855 25.25 -25.5 -14 66 -30.2 -22.3
20:50 1026 30.3 855 25.25 -25.4 -13.7 64 -30.3 -22.5
20:55 1026 30.3 855 25.25 -25.5 -13.9 63 -30.7 -23.2
21:00 1026 30.3 855 25.25 -25.6 -14.1 61 -31.1 -23.9
21:05 1026 30.3 855 25.25 -25.5 -13.8 63 -30.5 -22.9
21:10 1026 30.3 855 25.25 -25.4 -13.6 63 -30.5 -23
21:15 1026 30.3 855 25.25 -25.3 -13.5 62 -30.6 -23.1
21:20 1026 30.3 855 25.25 -25.2 -13.4 61 -30.8 -23.4
21:25 1026 30.3 855 25.25 -25.3 -13.5 60 -30.9 -23.7
21:30 1026 30.3 855 25.25 -25.3 -13.5 58 -31.2 -24.2
21:35 1026 30.3 855 25.25 -25.3 -13.6 59 -31.1 -24
21:40 1026 30.3 855 25.25 -25.3 -13.6 59 -31.1 -24
21:45 1026 30.3 855 25.25 -25.3 -13.5 58 -31.2 -24.2
21:50 1026 30.3 855 25.25 -25.3 -13.5 59 -31 -23.9
21:55 1026 30.3 855 25.25 -25.1 -13.3 60 -30.8 -23.5
22:00 1026 30.3 855 25.25 -25.3 -13.5 60 -30.9 -23.6
22:05 1026 30.3 855 25.25 -25.3 -13.5 61 -30.7 -23.3
22:10 1026 30.3 855 25.25 -25.5 -13.9 63 -30.6 -23.1
22:15 1026 30.3 855 25.25 -25.8 -14.4 63 -30.8 -23.4
22:20 1026 30.3 855 25.25 -25.9 -14.6 62 -31.2 -24.1
22:25 1026 30.3 855 25.25 -25.9 -14.5 64 -30.8 -23.4
22:30 1026 30.3 855 25.25 -25.9 -14.6 65 -30.6 -23.1
22:35 1026 30.3 855 25.25 -25.9 -14.6 63 -30.9 -23.7
22:40 1026 30.3 855 25.25 -25.9 -14.6 62 -31.2 -24.1
22:45 1026 30.3 855 25.25 -25.9 -14.6 62 -31.3 -24.3
22:50 1026 30.3 855 25.25 -26 -14.8 61 -31.5 -24.7
22:55 1026 30.3 855 25.25 -26.1 -15 62 -31.4 -24.5
23:00 1025 30.27 855 25.25 -26.1 -14.9 61 -31.4 -24.6
23:05 1025 30.27 855 25.25 -26.1 -15 63 -31.3 -24.3
23:10 1025 30.27 855 25.25 -26.4 -15.4 62 -31.6 -24.9
23:15 1025 30.27 855 25.25 -26.6 -15.8 62 -31.9 -25.4
23:20 1025 30.27 855 25.25 -26.4 -15.5 61 -31.8 -25.2
23:25 1025 30.27 855 25.25 -26.3 -15.4 61 -31.7 -25.1
23:30 1025 30.27 855 25.25 -26.4 -15.5 62 -31.7 -25
23:35 1025 30.27 854 25.22 -26.4 -15.5 61 -31.8 -25.2
23:40 1025 30.27 854 25.22 -26.5 -15.7 62 -31.8 -25.3
23:45 1025 30.27 854 25.22 -26.7 -16 61 -32.1 -25.8
23:50 1025 30.27 854 25.22 -26.7 -16 61 -32.1 -25.7
23:55 1025 30.27 854 25.22 -26.8 -16.2 62 -31.9 -25.5
24:00 1025 30.27 854 25.22 -27 -16.6 63 -32.1 -25.9